Time;durP1;ratioP1;P1;durP2;ratioP2;P2;SDS_P1;SDS_P2;PMS_P1;PMS_P2;Temp;Humidity;BMP_temperature;BMP_pressure;BME280_temperature;BME280_humidity;BME280_pressure;Samples;Min_cycle;Max_cycle;Signal;HPM_P1;HPM_P2
2022/10/14 00:00:36;;;;;;;;;;;;;;;;;;4993522;28;1200;-70
2022/10/14 00:03:01;;;;;;;;;;;;;;;;;;5025882;28;1972;-70
2022/10/14 00:05:27;;;;;;;;;;;;;;;;;;5010655;28;1234;-70
2022/10/14 00:07:52;;;;;;;;;;;;;;;;;;5025535;28;1240;-70
2022/10/14 00:10:20;;;;;;;;;;;;;;;;;;5009313;28;1224;-70
2022/10/14 00:12:46;;;;;;;;;;;;;;;;;;5010983;28;826;-70
2022/10/14 00:15:11;;;;;;;;;;;;;;;;;;5026327;28;1354;-70
2022/10/14 00:17:36;;;;;;;;;;;;;;;;;;5026478;28;1336;-70
2022/10/14 00:20:02;;;;;;;;;;;;;;;;;;5029470;28;1043;-70
2022/10/14 00:22:27;;;;;;;;;;;;;;;;;;5015087;28;805;-70
2022/10/14 00:24:53;;;;;;;;;;;;;;;;;;5029955;28;1894;-70
2022/10/14 00:27:19;;;;;;;;;;;;;;;;;;5009080;28;1442;-70
2022/10/14 00:29:44;;;;;;;;;;;;;;;;;;5033333;28;3039;-70
2022/10/14 00:32:09;;;;;;;;;;;;;;;;;;5032831;28;1277;-70
2022/10/14 00:34:35;;;;;;;;;;;;;;;;;;5049289;28;1464;-70
2022/10/14 00:37:00;;;;;;;;;;;;;;;;;;5033666;28;905;-70
2022/10/14 00:39:25;;;;;;;;;;;;;;;;;;5033790;28;903;-70
2022/10/14 00:41:51;;;;;;;;;;;;;;;;;;5049212;28;892;-70
2022/10/14 00:44:16;;;;;;;;;;;;;;;;;;5049291;28;1906;-70
2022/10/14 00:46:51;;;;;;;;;;;;;;;;;;5016051;28;1248;-70
2022/10/14 00:49:19;;;;;;;;;;;;;;;;;;5032465;28;1222;-70
2022/10/14 00:51:47;;;;;;;;;;;;;;;;;;5032447;28;1250;-70
2022/10/14 00:54:13;;;;;;;;;;;;;;;;;;5033953;28;910;-70
2022/10/14 00:56:40;;;;;;;;;;;;;;;;;;5033952;28;1166;-70
2022/10/14 00:59:06;;;;;;;;;;;;;;;;;;5032247;28;1353;-70
2022/10/14 01:01:31;;;;;;;;;;;;;;;;;;5031967;28;1520;-70
2022/10/14 01:03:57;;;;;;;;;;;;;;;;;;5033590;28;1898;-70
2022/10/14 01:06:33;;;;;;;;;;;;;;;;;;5033115;28;880;-70
2022/10/14 01:09:17;;;;;;;;;;;;;;;;;;5032094;28;1291;-70
2022/10/14 01:11:54;;;;;;;;;;;;;;;;;;5015508;28;1307;-70
2022/10/14 01:14:19;;;;;;;;;;;;;;;;;;5033338;28;869;-70
2022/10/14 01:16:55;;;;;;;;;;;;;;;;;;5033094;28;903;-70
2022/10/14 01:19:47;;;;;;;;;;;;;;;;;;5033722;28;826;-69
2022/10/14 01:22:21;;;;;;;;;;;;;;;;;;5033359;28;948;-70
2022/10/14 01:24:54;;;;;;;;;;;;;;;;;;5031518;28;1908;-70
2022/10/14 01:27:26;;;;;;;;;;;;;;;;;;5033219;28;903;-70
2022/10/14 01:29:51;;;;;;;;;;;;;;;;;;5033155;28;919;-70
2022/10/14 01:32:25;;;;;;;;;;;;;;;;;;5014622;28;1204;-70
2022/10/14 01:35:17;;;;;;;;;;;;;;;;;;5032260;28;1244;-70
2022/10/14 01:37:54;;;;;;;;;;;;;;;;;;5024331;28;1190;-70
2022/10/14 01:40:40;;;;;;;;;;;;;;;;;;5032718;28;947;-70
2022/10/14 01:43:06;;;;;;;;;;;;;;;;;;5014198;28;1967;-70
2022/10/14 01:45:33;;;;;;;;;;;;;;;;;;5031274;28;1340;-70
2022/10/14 01:48:00;;;;;;;;;;;;;;;;;;5032741;28;936;-70
2022/10/14 01:50:26;;;;;;;;;;;;;;;;;;5031032;28;1331;-70
2022/10/14 01:53:03;;;;;;;;;;;;;;;;;;5033203;28;908;-70
2022/10/14 01:55:31;;;;;;;;;;;;;;;;;;5032325;28;893;-70
2022/10/14 01:57:57;;;;;;;;;;;;;;;;;;5032822;28;1019;-70
2022/10/14 02:00:22;;;;;;;;;;;;;;;;;;5047223;28;903;-70
2022/10/14 02:02:50;;;;;;;;;;;;;;;;;;5047320;28;1300;-70
2022/10/14 02:05:19;;;;;;;;;;;;;;;;;;5031087;28;1906;-70
2022/10/14 02:07:47;;;;;;;;;;;;;;;;;;5031862;28;1265;-70
2022/10/14 02:10:20;;;;;;;;;;;;;;;;;;5033193;28;825;-70
2022/10/14 02:12:48;;;;;;;;;;;;;;;;;;5048543;28;1018;-71
2022/10/14 02:15:16;;;;;;;;;;;;;;;;;;5032817;28;892;-71
2022/10/14 02:17:44;;;;;;;;;;;;;;;;;;5031585;28;2869;-71
2022/10/14 02:20:12;;;;;;;;;;;;;;;;;;5048244;28;1189;-71
2022/10/14 02:22:43;;;;;;;;;;;;;;;;;;5032695;28;940;-71
2022/10/14 02:25:16;;;;;;;;;;;;;;;;;;5011503;28;1898;-71
2022/10/14 02:27:42;;;;;;;;;;;;;;;;;;5011025;28;1251;-71
2022/10/14 02:30:08;;;;;;;;;;;;;;;;;;5010726;28;1299;-71
2022/10/14 02:32:34;;;;;;;;;;;;;;;;;;5010333;28;969;-71
2022/10/14 02:35:01;;;;;;;;;;;;;;;;;;5010966;28;1292;-71
2022/10/14 02:37:28;;;;;;;;;;;;;;;;;;5012056;28;861;-71
2022/10/14 02:39:58;;;;;;;;;;;;;;;;;;5012362;28;817;-71
2022/10/14 02:42:24;;;;;;;;;;;;;;;;;;5010405;28;1214;-71
2022/10/14 02:44:54;;;;;;;;;;;;;;;;;;5011723;28;1882;-71
2022/10/14 02:47:19;;;;;;;;;;;;;;;;;;5011996;28;837;-71
2022/10/14 02:49:44;;;;;;;;;;;;;;;;;;5011958;28;886;-71
2022/10/14 02:52:10;;;;;;;;;;;;;;;;;;5011466;28;813;-71
2022/10/14 02:54:35;;;;;;;;;;;;;;;;;;5010017;28;909;-71
2022/10/14 02:57:00;;;;;;;;;;;;;;;;;;5010361;28;893;-71
2022/10/14 02:59:26;;;;;;;;;;;;;;;;;;5009877;28;1273;-72
2022/10/14 03:01:51;;;;;;;;;;;;;;;;;;5010456;28;1219;-72
2022/10/14 03:04:16;;;;;;;;;;;;;;;;;;5010419;28;1902;-71
2022/10/14 03:06:41;;;;;;;;;;;;;;;;;;5011547;28;996;-71
2022/10/14 03:09:07;;;;;;;;;;;;;;;;;;4993683;28;1363;-71
2022/10/14 03:11:32;;;;;;;;;;;;;;;;;;4993441;28;1193;-72
2022/10/14 03:13:57;;;;;;;;;;;;;;;;;;5010072;28;1208;-71
2022/10/14 03:16:22;;;;;;;;;;;;;;;;;;5011239;28;912;-71
2022/10/14 03:18:48;;;;;;;;;;;;;;;;;;5004226;28;3269;-71
2022/10/14 03:21:13;;;;;;;;;;;;;;;;;;5022096;28;818;-72
2022/10/14 03:23:39;;;;;;;;;;;;;;;;;;5006154;28;1890;-72
2022/10/14 03:26:04;;;;;;;;;;;;;;;;;;5022990;28;1166;-72
2022/10/14 03:28:29;;;;;;;;;;;;;;;;;;5022561;28;1172;-72
2022/10/14 03:30:54;;;;;;;;;;;;;;;;;;5023065;28;1448;-72
2022/10/14 03:33:20;;;;;;;;;;;;;;;;;;5022996;28;888;-71
2022/10/14 03:35:45;;;;;;;;;;;;;;;;;;5022687;28;1197;-72
2022/10/14 03:38:11;;;;;;;;;;;;;;;;;;5023236;28;877;-71
2022/10/14 03:40:36;;;;;;;;;;;;;;;;;;4990796;28;1035;-71
2022/10/14 03:43:02;;;;;;;;;;;;;;;;;;5023271;28;1315;-72
2022/10/14 03:45:27;;;;;;;;;;;;;;;;;;5022983;28;1967;-71
2022/10/14 03:47:53;;;;;;;;;;;;;;;;;;4992285;28;913;-71
2022/10/14 03:50:18;;;;;;;;;;;;;;;;;;4992087;28;821;-72
2022/10/14 03:52:43;;;;;;;;;;;;;;;;;;4991807;28;1055;-71
2022/10/14 03:55:09;;;;;;;;;;;;;;;;;;5009824;28;1335;-71
2022/10/14 03:57:34;;;;;;;;;;;;;;;;;;4995468;28;857;-71
2022/10/14 03:59:59;;;;;;;;;;;;;;;;;;5010907;28;1220;-71
2022/10/14 04:02:24;;;;;;;;;;;;;;;;;;5010644;28;1221;-72
2022/10/14 04:04:50;;;;;;;;;;;;;;;;;;5027296;28;1953;-71
2022/10/14 04:07:15;;;;;;;;;;;;;;;;;;4996010;28;992;-71
2022/10/14 04:09:40;;;;;;;;;;;;;;;;;;5011006;28;1248;-71
2022/10/14 04:12:05;;;;;;;;;;;;;;;;;;4993885;28;1221;-71
2022/10/14 04:14:31;;;;;;;;;;;;;;;;;;5026136;28;1156;-70
2022/10/14 04:16:56;;;;;;;;;;;;;;;;;;4995299;28;1018;-71
2022/10/14 04:19:22;;;;;;;;;;;;;;;;;;5026425;28;841;-70
2022/10/14 04:21:47;;;;;;;;;;;;;;;;;;4993826;28;1176;-71
2022/10/14 04:24:14;;;;;;;;;;;;;;;;;;5009597;28;1956;-70
2022/10/14 04:26:39;;;;;;;;;;;;;;;;;;5012890;28;1292;-70
2022/10/14 04:29:04;;;;;;;;;;;;;;;;;;5029966;28;952;-71
2022/10/14 04:31:29;;;;;;;;;;;;;;;;;;5029070;28;805;-70
2022/10/14 04:33:55;;;;;;;;;;;;;;;;;;5014430;28;905;-70
2022/10/14 04:36:20;;;;;;;;;;;;;;;;;;5012767;28;1397;-69
2022/10/14 04:38:46;;;;;;;;;;;;;;;;;;5029700;28;1169;-70
2022/10/14 04:41:11;;;;;;;;;;;;;;;;;;5013105;28;1375;-70
2022/10/14 04:43:36;;;;;;;;;;;;;;;;;;5028593;28;1910;-70
2022/10/14 04:46:01;;;;;;;;;;;;;;;;;;5029892;28;1235;-70
2022/10/14 04:48:27;;;;;;;;;;;;;;;;;;5029406;28;1235;-70
2022/10/14 04:50:53;;;;;;;;;;;;;;;;;;5012867;28;1297;-71
2022/10/14 04:53:18;;;;;;;;;;;;;;;;;;5014327;28;898;-70
2022/10/14 04:55:45;;;;;;;;;;;;;;;;;;5014749;28;933;-70
2022/10/14 04:58:10;;;;;;;;;;;;;;;;;;5015837;28;1193;-70
2022/10/14 05:00:36;;;;;;;;;;;;;;;;;;5017581;28;1000;-69
2022/10/14 05:03:01;;;;;;;;;;;;;;;;;;5030706;28;920;-70
2022/10/14 05:05:27;;;;;;;;;;;;;;;;;;5012760;28;1961;-70
2022/10/14 05:07:52;;;;;;;;;;;;;;;;;;5013870;28;886;-70
2022/10/14 05:10:17;;;;;;;;;;;;;;;;;;5029411;28;1162;-69
2022/10/14 05:12:43;;;;;;;;;;;;;;;;;;5012356;28;1328;-70
2022/10/14 05:15:09;;;;;;;;;;;;;;;;;;5014073;28;845;-70
2022/10/14 05:17:38;;;;;;;;;;;;;;;;;;5028190;28;1051;-70
2022/10/14 05:20:06;;;;;;;;;;;;;;;;;;5029361;28;1259;-70
2022/10/14 05:22:31;;;;;;;;;;;;;;;;;;5028028;28;885;-70
2022/10/14 05:24:56;;;;;;;;;;;;;;;;;;5014565;28;1943;-70
2022/10/14 05:27:22;;;;;;;;;;;;;;;;;;5029482;28;1295;-71
2022/10/14 05:29:48;;;;;;;;;;;;;;;;;;5014111;28;921;-70
2022/10/14 05:32:13;;;;;;;;;;;;;;;;;;5013048;28;1546;-71
2022/10/14 05:34:48;;;;;;;;;;;;;;;;;;5029330;28;868;-70
2022/10/14 05:37:13;;;;;;;;;;;;;;;;;;5014352;28;948;-70
2022/10/14 05:39:39;;;;;;;;;;;;;;;;;;5013669;28;830;-70
2022/10/14 05:42:04;;;;;;;;;;;;;;;;;;5030416;28;1264;-69
2022/10/14 05:44:29;;;;;;;;;;;;;;;;;;5013080;28;1961;-69
2022/10/14 05:46:55;;;;;;;;;;;;;;;;;;5011775;28;1343;-69
2022/10/14 05:49:20;;;;;;;;;;;;;;;;;;5013241;28;822;-69
2022/10/14 05:51:46;;;;;;;;;;;;;;;;;;5028211;28;1281;-70
2022/10/14 05:54:11;;;;;;;;;;;;;;;;;;5028600;28;790;-70
2022/10/14 05:56:39;;;;;;;;;;;;;;;;;;5012904;28;794;-71
2022/10/14 05:59:05;;;;;;;;;;;;;;;;;;5013058;28;881;-70
2022/10/14 06:01:33;;;;;;;;;;;;;;;;;;5012507;28;889;-70
2022/10/14 06:03:58;;;;;;;;;;;;;;;;;;5027462;28;1915;-70
2022/10/14 06:06:24;;;;;;;;;;;;;;;;;;5013270;28;936;-70
2022/10/14 06:08:49;;;;;;;;;;;;;;;;;;5012662;28;902;-71
2022/10/14 06:11:15;;;;;;;;;;;;;;;;;;5011582;28;1197;-71
2022/10/14 06:13:40;;;;;;;;;;;;;;;;;;5028196;28;896;-71
2022/10/14 06:16:07;;;;;;;;;;;;;;;;;;5012376;28;864;-71
2022/10/14 06:18:33;;;;;;;;;;;;;;;;;;5012357;28;944;-71
2022/10/14 06:20:59;;;;;;;;;;;;;;;;;;5012670;28;1013;-70
2022/10/14 06:23:24;;;;;;;;;;;;;;;;;;5012932;28;1953;-72
2022/10/14 06:25:50;;;;;;;;;;;;;;;;;;5011767;28;1075;-70
2022/10/14 06:28:15;;;;;;;;;;;;;;;;;;5027721;28;1339;-71
2022/10/14 06:30:40;;;;;;;;;;;;;;;;;;5012160;28;869;-71
2022/10/14 06:33:05;;;;;;;;;;;;;;;;;;5027526;28;861;-71
2022/10/14 06:35:31;;;;;;;;;;;;;;;;;;5027490;28;984;-71
2022/10/14 06:37:57;;;;;;;;;;;;;;;;;;5011024;28;1110;-71
2022/10/14 06:40:22;;;;;;;;;;;;;;;;;;5010889;28;1376;-71
2022/10/14 06:42:48;;;;;;;;;;;;;;;;;;5011677;28;889;-71
2022/10/14 06:45:13;;;;;;;;;;;;;;;;;;5027461;28;1906;-71
2022/10/14 06:47:38;;;;;;;;;;;;;;;;;;5012060;28;807;-71
2022/10/14 06:50:04;;;;;;;;;;;;;;;;;;5027615;28;1534;-71
2022/10/14 06:52:29;;;;;;;;;;;;;;;;;;5010651;28;1142;-72
2022/10/14 06:54:54;;;;;;;;;;;;;;;;;;5026618;28;1369;-71
2022/10/14 06:57:20;;;;;;;;;;;;;;;;;;5011768;28;1023;-69
2022/10/14 06:59:45;;;;;;;;;;;;;;;;;;5011089;28;933;-69
2022/10/14 07:02:10;;;;;;;;;;;;;;;;;;5027361;28;834;-68
2022/10/14 07:04:35;;;;;;;;;;;;;;;;;;5011490;28;1960;-68
2022/10/14 07:07:01;;;;;;;;;;;;;;;;;;5030206;28;955;-69
2022/10/14 07:09:27;;;;;;;;;;;;;;;;;;5014024;28;1350;-68
2022/10/14 07:11:53;;;;;;;;;;;;;;;;;;5013424;28;1110;-69
2022/10/14 07:14:19;;;;;;;;;;;;;;;;;;5030623;28;884;-69
2022/10/14 07:16:44;;;;;;;;;;;;;;;;;;5013496;28;1480;-69
2022/10/14 07:19:09;;;;;;;;;;;;;;;;;;5014430;28;1251;-69
2022/10/14 07:21:35;;;;;;;;;;;;;;;;;;5013210;28;1305;-68
2022/10/14 07:24:00;;;;;;;;;;;;;;;;;;5030678;28;1906;-69
2022/10/14 07:26:26;;;;;;;;;;;;;;;;;;5012721;28;1308;-68
2022/10/14 07:28:51;;;;;;;;;;;;;;;;;;5012027;28;1208;-69
2022/10/14 07:31:16;;;;;;;;;;;;;;;;;;5013213;28;1371;-68
2022/10/14 07:33:41;;;;;;;;;;;;;;;;;;5012643;28;1220;-68
2022/10/14 07:36:09;;;;;;;;;;;;;;;;;;5031088;28;909;-69
2022/10/14 07:38:34;;;;;;;;;;;;;;;;;;5030492;28;877;-69
2022/10/14 07:41:01;;;;;;;;;;;;;;;;;;5030929;28;967;-69
2022/10/14 07:43:26;;;;;;;;;;;;;;;;;;5013158;28;1965;-68
2022/10/14 07:45:59;;;;;;;;;;;;;;;;;;5030121;28;806;-68
2022/10/14 07:48:24;;;;;;;;;;;;;;;;;;5012998;28;1220;-68
2022/10/14 07:50:49;;;;;;;;;;;;;;;;;;5013459;28;1219;-70
2022/10/14 07:53:15;;;;;;;;;;;;;;;;;;5013815;28;1308;-70
2022/10/14 07:55:50;;;;;;;;;;;;;;;;;;5031227;28;841;-71
2022/10/14 07:58:16;;;;;;;;;;;;;;;;;;5031634;28;896;-71
2022/10/14 08:00:41;;;;;;;;;;;;;;;;;;5015001;28;1189;-70
2022/10/14 08:03:06;;;;;;;;;;;;;;;;;;5014995;28;1315;-71
2022/10/14 08:05:32;;;;;;;;;;;;;;;;;;5032256;28;1961;-70
2022/10/14 08:07:57;;;;;;;;;;;;;;;;;;5014608;28;1052;-70
2022/10/14 08:10:22;;;;;;;;;;;;;;;;;;5014439;28;1244;-71
2022/10/14 08:12:48;;;;;;;;;;;;;;;;;;5029206;28;1216;-71
2022/10/14 08:15:13;;;;;;;;;;;;;;;;;;5029202;28;1165;-71
2022/10/14 08:17:39;;;;;;;;;;;;;;;;;;5027338;28;1145;-71
2022/10/14 08:20:04;;;;;;;;;;;;;;;;;;5031308;28;972;-71
2022/10/14 08:22:29;;;;;;;;;;;;;;;;;;5030890;28;932;-71
2022/10/14 08:24:55;;;;;;;;;;;;;;;;;;5012871;28;1946;-70
2022/10/14 08:27:20;;;;;;;;;;;;;;;;;;5010177;28;2060;-70
2022/10/14 08:29:45;;;;;;;;;;;;;;;;;;5009859;28;1299;-71
2022/10/14 08:32:11;;;;;;;;;;;;;;;;;;5025731;28;1377;-70
2022/10/14 08:34:36;;;;;;;;;;;;;;;;;;5007921;28;1405;-70
2022/10/14 08:37:02;;;;;;;;;;;;;;;;;;5025536;28;1221;-71
2022/10/14 08:39:27;;;;;;;;;;;;;;;;;;5011728;28;1193;-71
2022/10/14 08:42:02;;;;;;;;;;;;;;;;;;5030034;28;1297;-71
2022/10/14 08:44:40;;;;;;;;;;;;;;;;;;5011972;28;1982;-72
2022/10/14 08:47:10;;;;;;;;;;;;;;;;;;5011823;28;1220;-72
2022/10/14 08:50:00;;;;;;;;;;;;;;;;;;5011171;28;1217;-72
2022/10/14 08:52:29;;;;;;;;;;;;;;;;;;5013180;28;1149;-72
2022/10/14 08:54:56;;;;;;;;;;;;;;;;;;5012268;28;1144;-72
2022/10/14 08:57:24;;;;;;;;;;;;;;;;;;5013395;28;1219;-72
2022/10/14 08:59:49;;;;;;;;;;;;;;;;;;5013533;28;853;-72
2022/10/14 09:02:20;;;;;;;;;;;;;;;;;;5029441;28;872;-72
2022/10/14 09:04:45;;;;;;;;;;;;;;;;;;5012650;28;1964;-72
2022/10/14 09:07:18;;;;;;;;;;;;;;;;;;5012836;28;1195;-72
2022/10/14 09:09:44;;;;;;;;;;;;;;;;;;5011759;28;1321;-72
2022/10/14 09:12:15;;;;;;;;;;;;;;;;;;5029851;28;1244;-72
2022/10/14 09:14:46;;;;;;;;;;;;;;;;;;5013202;28;837;-72
2022/10/14 09:17:24;;;;;;;;;;;;;;;;;;5012325;28;1304;-72
2022/10/14 09:19:50;;;;;;;;;;;;;;;;;;5013200;28;932;-72
2022/10/14 09:22:16;;;;;;;;;;;;;;;;;;5013703;28;909;-72
2022/10/14 09:24:45;;;;;;;;;;;;;;;;;;5013388;28;1902;-72
2022/10/14 09:27:20;;;;;;;;;;;;;;;;;;5012134;28;1301;-72
2022/10/14 09:29:57;;;;;;;;;;;;;;;;;;5011468;28;1219;-72
2022/10/14 09:32:26;;;;;;;;;;;;;;;;;;5013866;28;1051;-71
2022/10/14 09:34:52;;;;;;;;;;;;;;;;;;5012966;28;849;-71
2022/10/14 09:37:18;;;;;;;;;;;;;;;;;;5012095;28;1165;-71
2022/10/14 09:39:44;;;;;;;;;;;;;;;;;;5011496;28;1299;-71
2022/10/14 09:42:14;;;;;;;;;;;;;;;;;;5014113;28;861;-71
2022/10/14 09:44:39;;;;;;;;;;;;;;;;;;5011533;28;1977;-71
2022/10/14 09:47:09;;;;;;;;;;;;;;;;;;5028299;28;1003;-73
2022/10/14 09:49:39;;;;;;;;;;;;;;;;;;5013590;28;837;-71
2022/10/14 09:52:04;;;;;;;;;;;;;;;;;;5011790;28;1228;-72
2022/10/14 09:54:31;;;;;;;;;;;;;;;;;;5028880;28;782;-72
2022/10/14 09:56:57;;;;;;;;;;;;;;;;;;5011205;28;1325;-71
2022/10/14 09:59:23;;;;;;;;;;;;;;;;;;5011658;28;1326;-71
2022/10/14 10:02:00;;;;;;;;;;;;;;;;;;5012931;28;904;-72
2022/10/14 10:04:31;;;;;;;;;;;;;;;;;;5013368;28;1898;-72
2022/10/14 10:06:58;;;;;;;;;;;;;;;;;;5011778;28;1192;-71
2022/10/14 10:09:23;;;;;;;;;;;;;;;;;;5012621;28;1385;-71
2022/10/14 10:11:49;;;;;;;;;;;;;;;;;;5013648;28;825;-72
2022/10/14 10:14:26;;;;;;;;;;;;;;;;;;5012904;28;1449;-73
2022/10/14 10:17:07;;;;;;;;;;;;;;;;;;5013260;28;1018;-72
2022/10/14 10:19:33;;;;;;;;;;;;;;;;;;5012133;28;1126;-72
2022/10/14 10:22:17;;;;;;;;;;;;;;;;;;5012168;28;1035;-71
2022/10/14 10:24:43;;;;;;;;;;;;;;;;;;5012617;28;1914;-71
2022/10/14 10:27:27;;;;;;;;;;;;;;;;;;5011783;28;1341;-71
2022/10/14 10:29:56;;;;;;;;;;;;;;;;;;5011531;28;1102;-71
2022/10/14 10:32:30;;;;;;;;;;;;;;;;;;5013425;28;885;-71
2022/10/14 10:35:10;;;;;;;;;;;;;;;;;;5010640;28;1234;-71
2022/10/14 10:37:45;;;;;;;;;;;;;;;;;;5011928;28;877;-71
2022/10/14 10:40:19;;;;;;;;;;;;;;;;;;5011932;28;908;-71
2022/10/14 10:42:53;;;;;;;;;;;;;;;;;;5011575;28;876;-71
2022/10/14 10:45:28;;;;;;;;;;;;;;;;;;5012580;28;1906;-71
2022/10/14 10:47:56;;;;;;;;;;;;;;;;;;5010406;28;1251;-71
2022/10/14 10:50:40;;;;;;;;;;;;;;;;;;5012360;28;1199;-71
2022/10/14 10:53:09;;;;;;;;;;;;;;;;;;5011063;28;1224;-70
2022/10/14 10:55:34;;;;;;;;;;;;;;;;;;5011260;28;1184;-71
2022/10/14 10:58:12;;;;;;;;;;;;;;;;;;5009875;28;1243;-70
2022/10/14 11:00:43;;;;;;;;;;;;;;;;;;5010788;28;1050;-72
2022/10/14 11:03:18;;;;;;;;;;;;;;;;;;5011960;28;920;-71
2022/10/14 11:05:43;;;;;;;;;;;;;;;;;;5011132;28;1887;-71
2022/10/14 11:14:07;;;;;;;;;;;;;;;;;;5011619;28;679;-71
2022/10/14 11:16:51;;;;;;;;;;;;;;;;;;5011578;28;952;-71
2022/10/14 11:19:36;;;;;;;;;;;;;;;;;;5011849;28;1051;-71
2022/10/14 11:22:13;;;;;;;;;;;;;;;;;;5009576;28;1371;-71
2022/10/14 11:24:53;;;;;;;;;;;;;;;;;;5011521;28;1894;-71
2022/10/14 11:27:33;;;;;;;;;;;;;;;;;;5010208;28;1349;-71
2022/10/14 11:30:01;;;;;;;;;;;;;;;;;;5010927;28;905;-71
2022/10/14 11:32:45;;;;;;;;;;;;;;;;;;5011699;28;850;-71
2022/10/14 11:35:34;;;;;;;;;;;;;;;;;;5011498;28;869;-71
2022/10/14 11:38:05;;;;;;;;;;;;;;;;;;5009324;28;1255;-71
2022/10/14 11:40:36;;;;;;;;;;;;;;;;;;5011593;28;837;-71
2022/10/14 11:43:05;;;;;;;;;;;;;;;;;;5010667;28;841;-71
2022/10/14 11:46:00;;;;;;;;;;;;;;;;;;5010169;28;1987;-72
2022/10/14 11:48:28;;;;;;;;;;;;;;;;;;5006268;28;1419;-72
2022/10/14 11:51:03;;;;;;;;;;;;;;;;;;5011484;28;901;-72
2022/10/14 11:53:48;;;;;;;;;;;;;;;;;;5012320;28;896;-72
2022/10/14 11:56:36;;;;;;;;;;;;;;;;;;5010843;28;1081;-72
2022/10/14 11:59:08;;;;;;;;;;;;;;;;;;5010264;28;1140;-72
2022/10/14 12:01:40;;;;;;;;;;;;;;;;;;5011518;28;940;-72
2022/10/14 12:04:31;;;;;;;;;;;;;;;;;;5009595;28;1952;-73
2022/10/14 12:07:04;;;;;;;;;;;;;;;;;;5009878;28;976;-72
2022/10/14 12:09:42;;;;;;;;;;;;;;;;;;5010836;28;899;-72
2022/10/14 12:12:10;;;;;;;;;;;;;;;;;;5011073;28;884;-72
2022/10/14 12:14:41;;;;;;;;;;;;;;;;;;5010100;28;1248;-72
2022/10/14 12:17:15;;;;;;;;;;;;;;;;;;5015371;28;1014;-72
2022/10/14 12:19:40;;;;;;;;;;;;;;;;;;5014463;28;806;-73
2022/10/14 12:22:26;;;;;;;;;;;;;;;;;;5029780;28;954;-73
2022/10/14 12:24:53;;;;;;;;;;;;;;;;;;5013211;28;1956;-72
2022/10/14 12:27:20;;;;;;;;;;;;;;;;;;5031325;28;1225;-72
2022/10/14 12:29:46;;;;;;;;;;;;;;;;;;5033980;28;895;-72
2022/10/14 12:32:19;;;;;;;;;;;;;;;;;;5034720;28;911;-72
2022/10/14 12:34:46;;;;;;;;;;;;;;;;;;5033755;28;810;-72
2022/10/14 12:37:33;;;;;;;;;;;;;;;;;;5016329;28;1197;-72
2022/10/14 12:40:02;;;;;;;;;;;;;;;;;;5015549;28;1209;-72
2022/10/14 12:42:47;;;;;;;;;;;;;;;;;;5016191;28;1455;-72
2022/10/14 12:45:33;;;;;;;;;;;;;;;;;;5025955;28;1902;-72
2022/10/14 12:48:10;;;;;;;;;;;;;;;;;;5033702;28;884;-72
2022/10/14 12:50:37;;;;;;;;;;;;;;;;;;5034500;28;834;-70
2022/10/14 12:53:04;;;;;;;;;;;;;;;;;;5033727;28;849;-70
2022/10/14 12:55:45;;;;;;;;;;;;;;;;;;5033902;28;980;-71
2022/10/14 12:58:15;;;;;;;;;;;;;;;;;;5034700;28;810;-71
2022/10/14 13:00:40;;;;;;;;;;;;;;;;;;5015578;28;1312;-71
2022/10/14 13:03:16;;;;;;;;;;;;;;;;;;5033546;28;967;-71
2022/10/14 13:05:44;;;;;;;;;;;;;;;;;;5015974;28;1902;-71
2022/10/14 13:08:10;;;;;;;;;;;;;;;;;;5033916;28;916;-71
2022/10/14 13:10:38;;;;;;;;;;;;;;;;;;5034366;28;903;-71
2022/10/14 13:13:22;;;;;;;;;;;;;;;;;;5034588;28;965;-71
2022/10/14 13:15:49;;;;;;;;;;;;;;;;;;5016421;28;1204;-70
2022/10/14 13:18:30;;;;;;;;;;;;;;;;;;5016227;28;1371;-70
2022/10/14 13:20:55;;;;;;;;;;;;;;;;;;5015988;28;1386;-70
2022/10/14 13:23:30;;;;;;;;;;;;;;;;;;5034087;28;758;-71
2022/10/14 13:26:20;;;;;;;;;;;;;;;;;;5013924;28;1957;-70
2022/10/14 13:28:52;;;;;;;;;;;;;;;;;;5032767;28;964;-70
2022/10/14 13:31:32;;;;;;;;;;;;;;;;;;5033141;28;916;-70
2022/10/14 13:34:11;;;;;;;;;;;;;;;;;;5014897;28;1379;-70
2022/10/14 13:36:41;;;;;;;;;;;;;;;;;;5015244;28;1245;-70
2022/10/14 13:39:08;;;;;;;;;;;;;;;;;;5032621;28;893;-70
2022/10/14 13:41:33;;;;;;;;;;;;;;;;;;5032256;28;813;-71
2022/10/14 13:44:00;;;;;;;;;;;;;;;;;;5032504;28;1967;-70
2022/10/14 13:46:32;;;;;;;;;;;;;;;;;;5014946;28;1216;-71
2022/10/14 13:49:00;;;;;;;;;;;;;;;;;;5032151;28;1042;-71
2022/10/14 13:51:41;;;;;;;;;;;;;;;;;;5014789;28;1201;-71
2022/10/14 13:54:18;;;;;;;;;;;;;;;;;;5032723;28;900;-70
2022/10/14 13:56:56;;;;;;;;;;;;;;;;;;5014910;28;1338;-71
2022/10/14 13:59:23;;;;;;;;;;;;;;;;;;5014658;28;1336;-71
2022/10/14 14:01:50;;;;;;;;;;;;;;;;;;5014973;28;1229;-71
2022/10/14 14:04:21;;;;;;;;;;;;;;;;;;5032345;28;1961;-71
2022/10/14 14:06:46;;;;;;;;;;;;;;;;;;5032450;28;814;-71
2022/10/14 14:09:17;;;;;;;;;;;;;;;;;;5015156;28;1284;-71
2022/10/14 14:11:45;;;;;;;;;;;;;;;;;;5032557;28;1020;-72
2022/10/14 14:14:17;;;;;;;;;;;;;;;;;;5032846;28;913;-71
2022/10/14 14:16:49;;;;;;;;;;;;;;;;;;5032021;28;1076;-71
2022/10/14 14:19:33;;;;;;;;;;;;;;;;;;5032260;28;845;-71
2022/10/14 14:22:05;;;;;;;;;;;;;;;;;;5014333;28;1339;-71
2022/10/14 14:24:32;;;;;;;;;;;;;;;;;;5014206;28;1951;-71
2022/10/14 14:26:58;;;;;;;;;;;;;;;;;;5032106;28;1078;-71
2022/10/14 14:29:28;;;;;;;;;;;;;;;;;;5032930;28;924;-71
2022/10/14 14:31:54;;;;;;;;;;;;;;;;;;5015218;28;1185;-71
2022/10/14 14:34:20;;;;;;;;;;;;;;;;;;5032054;28;952;-71
2022/10/14 14:36:46;;;;;;;;;;;;;;;;;;5014298;28;1518;-71
2022/10/14 14:39:25;;;;;;;;;;;;;;;;;;5030929;28;1339;-71
2022/10/14 14:41:54;;;;;;;;;;;;;;;;;;5032430;28;924;-72
2022/10/14 14:44:22;;;;;;;;;;;;;;;;;;5032791;28;1883;-72
2022/10/14 14:46:48;;;;;;;;;;;;;;;;;;5031458;28;846;-72
2022/10/14 14:49:19;;;;;;;;;;;;;;;;;;5014173;28;1276;-72
2022/10/14 14:51:44;;;;;;;;;;;;;;;;;;5031941;28;913;-71
2022/10/14 14:54:17;;;;;;;;;;;;;;;;;;5032453;28;952;-72
2022/10/14 14:56:44;;;;;;;;;;;;;;;;;;5013888;28;1221;-72
2022/10/14 14:59:26;;;;;;;;;;;;;;;;;;5032392;28;857;-72
2022/10/14 15:01:51;;;;;;;;;;;;;;;;;;5031244;28;861;-71
2022/10/14 15:04:19;;;;;;;;;;;;;;;;;;5031773;28;1917;-71
2022/10/14 15:06:48;;;;;;;;;;;;;;;;;;5031350;28;810;-72
2022/10/14 15:09:13;;;;;;;;;;;;;;;;;;5030408;28;912;-72
2022/10/14 15:11:53;;;;;;;;;;;;;;;;;;5013837;28;1300;-72
2022/10/14 15:14:37;;;;;;;;;;;;;;;;;;5014017;28;1245;-72
2022/10/14 15:17:05;;;;;;;;;;;;;;;;;;5031533;28;1153;-71
2022/10/14 15:19:33;;;;;;;;;;;;;;;;;;5029908;28;857;-73
2022/10/14 15:22:09;;;;;;;;;;;;;;;;;;5013327;28;1277;-73
2022/10/14 15:24:34;;;;;;;;;;;;;;;;;;5013946;28;1962;-72
2022/10/14 15:27:19;;;;;;;;;;;;;;;;;;5030823;28;1240;-71
2022/10/14 15:29:45;;;;;;;;;;;;;;;;;;5031335;28;978;-72
2022/10/14 15:32:12;;;;;;;;;;;;;;;;;;5014582;28;1371;-71
2022/10/14 15:34:37;;;;;;;;;;;;;;;;;;5014515;28;1352;-72
2022/10/14 15:37:03;;;;;;;;;;;;;;;;;;5031674;28;960;-72
2022/10/14 15:39:28;;;;;;;;;;;;;;;;;;5031981;28;825;-70
2022/10/14 15:41:54;;;;;;;;;;;;;;;;;;5013581;28;1260;-73
2022/10/14 15:44:19;;;;;;;;;;;;;;;;;;5031835;28;1939;-71
2022/10/14 15:49:33;;;;;;;;;;;;;;;;;;5031244;28;671;-71
2022/10/14 15:51:58;;;;;;;;;;;;;;;;;;5032415;28;770;-69
2022/10/14 15:54:26;;;;;;;;;;;;;;;;;;5014229;28;1256;-71
2022/10/14 15:56:51;;;;;;;;;;;;;;;;;;5032060;28;821;-71
2022/10/14 15:59:17;;;;;;;;;;;;;;;;;;5014292;28;1383;-71
2022/10/14 16:01:44;;;;;;;;;;;;;;;;;;5013625;28;1243;-71
2022/10/14 16:04:18;;;;;;;;;;;;;;;;;;5031814;28;1976;-68
2022/10/14 16:06:43;;;;;;;;;;;;;;;;;;5013686;28;1304;-69
2022/10/14 16:09:09;;;;;;;;;;;;;;;;;;5014191;28;1248;-74
2022/10/14 16:11:34;;;;;;;;;;;;;;;;;;5033467;28;892;-70
2022/10/14 16:13:59;;;;;;;;;;;;;;;;;;5030192;28;884;-69
2022/10/14 16:16:31;;;;;;;;;;;;;;;;;;5029541;28;908;-69
2022/10/14 16:18:56;;;;;;;;;;;;;;;;;;5031719;28;861;-70
2022/10/14 16:21:22;;;;;;;;;;;;;;;;;;5013411;28;1154;-69
2022/10/14 16:23:47;;;;;;;;;;;;;;;;;;5029193;28;1894;-69
2022/10/14 16:26:13;;;;;;;;;;;;;;;;;;5030234;28;1295;-69
2022/10/14 16:28:41;;;;;;;;;;;;;;;;;;5013302;28;1515;-70
2022/10/14 16:31:09;;;;;;;;;;;;;;;;;;5029650;28;904;-70
2022/10/14 16:33:34;;;;;;;;;;;;;;;;;;5030791;28;833;-69
2022/10/14 16:36:01;;;;;;;;;;;;;;;;;;5030275;28;833;-69
2022/10/14 16:38:27;;;;;;;;;;;;;;;;;;5013088;28;1067;-70
2022/10/14 16:40:55;;;;;;;;;;;;;;;;;;5030290;28;873;-69
2022/10/14 16:43:24;;;;;;;;;;;;;;;;;;5030852;28;837;-70
2022/10/14 16:45:49;;;;;;;;;;;;;;;;;;5028896;28;1918;-70
2022/10/14 16:48:18;;;;;;;;;;;;;;;;;;5013399;28;1251;-69
2022/10/14 16:50:47;;;;;;;;;;;;;;;;;;5012428;28;1510;-70
2022/10/14 16:55:56;;;;;;;;;;;;;;;;;;5029062;28;1201;-69
2022/10/14 16:58:21;;;;;;;;;;;;;;;;;;5012553;28;1253;-69
2022/10/14 17:00:47;;;;;;;;;;;;;;;;;;5012590;28;1188;-69
2022/10/14 17:03:15;;;;;;;;;;;;;;;;;;5032891;28;925;-70
2022/10/14 17:05:41;;;;;;;;;;;;;;;;;;5033454;28;1979;-68
2022/10/14 17:08:06;;;;;;;;;;;;;;;;;;5033532;28;857;-68
2022/10/14 17:10:31;;;;;;;;;;;;;;;;;;5033412;28;1071;-68
2022/10/14 17:12:56;;;;;;;;;;;;;;;;;;5015539;28;1220;-68
2022/10/14 17:15:22;;;;;;;;;;;;;;;;;;5032328;28;939;-68
2022/10/14 17:17:47;;;;;;;;;;;;;;;;;;5015274;28;1236;-68
2022/10/14 17:20:12;;;;;;;;;;;;;;;;;;5032816;28;980;-68
2022/10/14 17:22:38;;;;;;;;;;;;;;;;;;5032151;28;905;-67
2022/10/14 17:25:04;;;;;;;;;;;;;;;;;;5015042;28;1965;-68
2022/10/14 17:27:29;;;;;;;;;;;;;;;;;;5033094;28;1209;-68
2022/10/14 17:29:54;;;;;;;;;;;;;;;;;;5033317;28;916;-68
2022/10/14 17:32:20;;;;;;;;;;;;;;;;;;5033661;28;814;-68